createdAt,value
2018-02-12T00:00:00.378Z,9.17
2018-02-12T00:02:27.950Z,8.00
2018-02-12T00:04:55.519Z,8.47
2018-02-12T00:07:23.147Z,10.00
2018-02-12T00:09:50.718Z,9.33
2018-02-12T00:12:18.363Z,8.50
2018-02-12T00:14:45.934Z,8.40
2018-02-12T00:17:13.508Z,9.20
2018-02-12T00:19:41.082Z,8.87
2018-02-12T00:22:08.746Z,8.60
2018-02-12T00:24:36.324Z,8.50
2018-02-12T00:27:03.918Z,10.37
2018-02-12T00:29:31.536Z,10.70
2018-02-12T00:31:59.153Z,10.30
2018-02-12T00:34:26.776Z,9.27
2018-02-12T00:36:54.378Z,8.93
2018-02-12T00:39:22.895Z,8.83
2018-02-12T00:41:50.476Z,9.80
2018-02-12T00:44:18.047Z,8.50
2018-02-12T00:46:45.619Z,10.73
2018-02-12T00:49:13.246Z,10.27
2018-02-12T00:51:40.866Z,11.03
2018-02-12T00:54:08.467Z,11.00
2018-02-12T00:56:36.084Z,11.07
2018-02-12T00:59:03.666Z,10.50
2018-02-12T01:01:31.286Z,11.57
2018-02-12T01:03:58.875Z,12.70
2018-02-12T01:06:26.524Z,12.20
2018-02-12T01:08:54.102Z,11.13
2018-02-12T01:11:21.798Z,11.53
2018-02-12T01:13:49.377Z,9.23
2018-02-12T01:16:17.054Z,11.63
2018-02-12T01:18:44.628Z,11.03
2018-02-12T01:21:12.204Z,10.90
2018-02-12T01:23:39.838Z,10.37
2018-02-12T01:26:07.426Z,11.35
2018-02-12T01:28:35.053Z,11.07
2018-02-12T01:31:02.694Z,10.48
2018-02-12T01:33:30.279Z,12.57
2018-02-12T01:35:57.913Z,13.18
2018-02-12T01:38:25.528Z,11.00
2018-02-12T01:40:53.192Z,12.20
2018-02-12T01:43:20.769Z,12.10
2018-02-12T01:45:48.380Z,12.07
2018-02-12T01:48:16.002Z,10.75
2018-02-12T01:50:43.577Z,12.67
2018-02-12T01:53:11.199Z,12.60
2018-02-12T01:55:38.916Z,12.30
2018-02-12T01:58:06.506Z,11.73
2018-02-12T02:00:34.190Z,13.23
2018-02-12T02:03:01.767Z,13.60
2018-02-12T02:05:29.387Z,13.10
2018-02-12T02:07:56.973Z,12.95
2018-02-12T02:10:24.686Z,12.73
2018-02-12T02:12:52.280Z,12.98
2018-02-12T02:15:19.910Z,12.98
2018-02-12T02:17:47.538Z,12.60
2018-02-12T02:20:15.166Z,13.02
2018-02-12T02:22:42.747Z,14.23
2018-02-12T02:25:10.330Z,12.50
2018-02-12T02:27:37.921Z,11.93
2018-02-12T02:30:05.510Z,12.32
2018-02-12T02:32:33.095Z,14.23
2018-02-12T02:35:00.675Z,13.43
2018-02-12T02:37:28.367Z,15.13
2018-02-12T02:39:55.962Z,14.68
2018-02-12T02:42:23.550Z,13.77
2018-02-12T02:44:51.250Z,13.60
2018-02-12T02:47:18.851Z,15.38
2018-02-12T02:49:47.266Z,12.77
2018-02-12T02:52:14.854Z,14.90
2018-02-12T02:54:42.549Z,15.57
2018-02-12T02:57:10.174Z,14.97
2018-02-12T02:59:39.366Z,15.95
2018-02-12T03:02:06.955Z,14.27
2018-02-12T03:04:34.551Z,14.32
2018-02-12T03:07:02.134Z,14.68
2018-02-12T03:09:29.789Z,15.63
2018-02-12T03:11:57.413Z,15.00
2018-02-12T03:14:25.907Z,15.77
2018-02-12T03:16:54.340Z,17.50
2018-02-12T03:19:22.698Z,17.13
2018-02-12T03:21:50.273Z,17.95
2018-02-12T03:24:17.858Z,16.00
2018-02-12T03:26:45.435Z,15.33
2018-02-12T03:29:13.070Z,19.73
2018-02-12T03:31:40.733Z,14.30
2018-02-12T03:34:08.354Z,14.95
2018-02-12T03:36:35.958Z,13.40
2018-02-12T03:39:03.546Z,13.98
2018-02-12T03:41:31.129Z,15.00
2018-02-12T03:43:58.742Z,14.70
2018-02-12T03:46:26.403Z,13.00
2018-02-12T03:48:54.026Z,17.23
2018-02-12T03:51:21.619Z,15.75
2018-02-12T03:53:49.235Z,14.23
2018-02-12T03:56:17.615Z,15.77
2018-02-12T03:58:45.336Z,14.50
2018-02-12T04:01:13.871Z,13.65
2018-02-12T04:03:42.243Z,14.87
2018-02-12T04:06:10.710Z,13.35
2018-02-12T04:08:39.194Z,17.50
2018-02-12T04:11:07.587Z,14.85
2018-02-12T04:13:35.994Z,15.38
2018-02-12T04:16:04.472Z,15.67
2018-02-12T04:18:32.922Z,16.42
2018-02-12T04:21:01.314Z,16.90
2018-02-12T04:23:28.898Z,15.88
2018-02-12T04:25:56.495Z,15.85
2018-02-12T04:28:24.956Z,16.62
2018-02-12T04:30:53.348Z,15.43
2018-02-12T04:33:20.934Z,14.25
2018-02-12T04:35:48.586Z,14.73
2018-02-12T04:38:16.170Z,16.70
2018-02-12T04:40:44.875Z,15.65
2018-02-12T04:43:12.497Z,15.05
2018-02-12T04:45:40.808Z,16.05
2018-02-12T04:48:09.208Z,17.45
2018-02-12T04:50:37.531Z,16.37
2018-02-12T04:53:05.891Z,14.13
2018-02-12T04:55:33.522Z,14.57
2018-02-12T04:58:01.116Z,16.05
2018-02-12T05:00:29.766Z,15.25
2018-02-12T05:02:58.188Z,14.17
2018-02-12T05:05:25.854Z,14.23
2018-02-12T05:07:53.430Z,14.90
2018-02-12T05:10:21.129Z,14.50
2018-02-12T05:12:48.706Z,15.43
2018-02-12T05:15:16.316Z,14.30
2018-02-12T05:17:44.846Z,15.15
2018-02-12T05:20:13.302Z,13.82
2018-02-12T05:22:41.040Z,14.95
2018-02-12T05:25:09.518Z,13.87
2018-02-12T05:27:37.916Z,15.00
2018-02-12T05:30:06.307Z,14.40
2018-02-12T05:32:33.931Z,14.75
2018-02-12T05:35:01.531Z,14.38
2018-02-12T05:37:30.272Z,13.87
2018-02-12T05:39:58.639Z,15.37
2018-02-12T05:42:27.017Z,14.17
2018-02-12T05:44:54.636Z,14.80
2018-02-12T05:47:22.218Z,13.80
2018-02-12T05:49:49.794Z,13.40
2018-02-12T05:52:17.389Z,13.25
2018-02-12T05:54:44.974Z,14.47
2018-02-12T05:57:12.555Z,13.80
2018-02-12T05:59:40.133Z,13.63
2018-02-12T06:02:07.704Z,12.43
2018-02-12T06:04:35.279Z,13.33
2018-02-12T06:07:02.899Z,13.43
2018-02-12T06:09:31.219Z,14.30
2018-02-12T06:11:58.802Z,14.30
2018-02-12T06:14:26.374Z,13.00
2018-02-12T06:16:53.946Z,13.53
2018-02-12T06:19:21.522Z,13.80
2018-02-12T06:21:49.145Z,13.53
2018-02-12T06:24:17.731Z,13.30
2018-02-12T06:26:45.317Z,12.17
2018-02-12T06:29:12.900Z,14.13
2018-02-12T06:31:40.510Z,12.53
2018-02-12T06:34:08.869Z,13.20
2018-02-12T06:36:36.549Z,13.90
2018-02-12T06:39:04.176Z,11.23
2018-02-12T06:41:31.758Z,11.50
2018-02-12T06:43:59.404Z,11.98
2018-02-12T06:46:27.098Z,14.73
2018-02-12T06:48:54.678Z,12.40
2018-02-12T06:51:23.164Z,12.30
2018-02-12T06:53:50.807Z,11.83
2018-02-12T06:56:18.475Z,11.27
2018-02-12T06:58:46.057Z,12.20
2018-02-12T07:01:14.457Z,11.57
2018-02-12T07:03:42.030Z,12.70
2018-02-12T07:06:10.438Z,11.63
2018-02-12T07:08:38.019Z,14.47
2018-02-12T07:11:06.439Z,11.33
2018-02-12T07:13:34.056Z,10.77
2018-02-12T07:16:02.680Z,10.20
2018-02-12T07:18:31.158Z,11.10
2018-02-12T07:20:59.527Z,10.40
2018-02-12T07:23:27.875Z,11.70
2018-02-12T07:25:55.451Z,11.40
2018-02-12T07:28:23.843Z,10.77
2018-02-12T07:30:52.163Z,9.23
2018-02-12T07:33:20.478Z,10.40
2018-02-12T07:35:48.826Z,10.60
2018-02-12T07:38:16.409Z,10.50
2018-02-12T07:40:44.903Z,9.50
2018-02-12T07:43:13.294Z,12.10
2018-02-12T07:45:40.911Z,11.10
2018-02-12T07:48:09.401Z,11.47
2018-02-12T07:50:37.090Z,10.20
2018-02-12T07:53:05.624Z,10.53
2018-02-12T07:55:33.207Z,10.57
2018-02-12T07:58:01.675Z,10.33
2018-02-12T08:00:29.985Z,9.67
2018-02-12T08:02:58.262Z,9.93
2018-02-12T08:05:25.844Z,10.17
2018-02-12T08:07:54.131Z,10.03
2018-02-12T08:10:21.763Z,10.20
2018-02-12T08:12:50.260Z,9.30
2018-02-12T08:15:17.836Z,10.57
2018-02-12T08:17:46.331Z,9.70
2018-02-12T08:20:13.951Z,10.93
2018-02-12T08:22:42.444Z,10.47
2018-02-12T08:25:10.062Z,9.93
2018-02-12T08:27:37.718Z,10.57
2018-02-12T08:30:05.303Z,12.23
2018-02-12T08:32:33.651Z,10.13
2018-02-12T08:35:01.234Z,10.40
2018-02-12T08:37:29.805Z,12.93
2018-02-12T08:39:57.385Z,9.93
2018-02-12T08:42:25.810Z,11.10
2018-02-12T08:44:53.726Z,10.57
2018-02-12T08:47:22.247Z,10.67
2018-02-12T08:49:50.521Z,11.00
2018-02-12T08:52:18.137Z,9.60
2018-02-12T08:54:46.512Z,9.87
2018-02-12T08:57:15.027Z,9.60
2018-02-12T08:59:42.604Z,10.00
2018-02-12T09:02:10.291Z,11.23
2018-02-12T09:04:37.895Z,11.07
2018-02-12T09:07:05.472Z,9.90
2018-02-12T09:09:33.158Z,9.20
2018-02-12T09:12:00.738Z,9.80
2018-02-12T09:14:28.314Z,9.40
2018-02-12T09:16:55.892Z,10.43
2018-02-12T09:19:23.467Z,8.47
2018-02-12T09:21:51.067Z,9.07
2018-02-12T09:24:19.548Z,7.97
2018-02-12T09:26:47.126Z,9.23
2018-02-12T09:29:14.772Z,8.43
2018-02-12T09:31:42.350Z,9.40
2018-02-12T09:34:09.923Z,6.87
2018-02-12T09:36:37.503Z,8.97
2018-02-12T09:39:05.070Z,9.40
2018-02-12T09:41:33.635Z,9.60
2018-02-12T09:44:01.210Z,9.30
2018-02-12T09:46:28.785Z,8.17
2018-02-12T09:48:56.358Z,7.70
2018-02-12T09:51:23.942Z,8.07
2018-02-12T09:53:51.606Z,9.40
2018-02-12T09:56:19.182Z,9.37
2018-02-12T09:58:46.807Z,9.40
2018-02-12T10:01:14.391Z,9.77
2018-02-12T10:03:42.003Z,9.27
2018-02-12T10:06:10.364Z,9.60
2018-02-12T10:08:37.941Z,8.87
2018-02-12T10:11:05.509Z,9.83
2018-02-12T10:13:33.226Z,9.07
2018-02-12T10:16:00.838Z,9.53
2018-02-12T10:18:29.119Z,9.93
2018-02-12T10:20:56.747Z,10.63
2018-02-12T10:23:24.413Z,9.30
2018-02-12T10:25:52.081Z,10.10
2018-02-12T10:28:19.757Z,11.17
2018-02-12T10:30:47.370Z,9.57
2018-02-12T10:33:14.948Z,9.70
2018-02-12T10:35:42.559Z,10.70
2018-02-12T10:38:10.131Z,10.27
2018-02-12T10:40:37.708Z,11.57
2018-02-12T10:43:05.298Z,8.60
2018-02-12T10:45:32.922Z,13.50
2018-02-12T10:48:00.548Z,9.73
2018-02-12T10:50:28.264Z,10.17
2018-02-12T10:52:56.781Z,11.60
2018-02-12T10:55:24.359Z,10.93
2018-02-12T10:57:51.935Z,9.17
2018-02-12T11:00:19.512Z,9.60
2018-02-12T11:02:47.136Z,10.70
2018-02-12T11:05:14.706Z,10.20
2018-02-12T11:07:42.972Z,9.83
2018-02-12T11:10:11.359Z,9.60
2018-02-12T11:12:38.934Z,8.43
2018-02-12T11:15:07.320Z,8.97
2018-02-12T11:17:35.979Z,8.77
2018-02-12T11:20:04.566Z,9.13
2018-02-12T11:22:32.142Z,8.93
2018-02-12T11:25:00.521Z,9.97
2018-02-12T11:27:28.927Z,9.90
2018-02-12T11:29:57.475Z,8.57
2018-02-12T11:32:25.857Z,8.67
2018-02-12T11:34:54.232Z,8.10
2018-02-12T11:37:22.609Z,8.60
2018-02-12T11:39:51.076Z,10.47
2018-02-12T11:42:19.432Z,8.83
2018-02-12T11:44:47.047Z,8.23
2018-02-12T11:47:15.518Z,8.00
2018-02-12T11:49:43.994Z,8.17
2018-02-12T11:52:12.429Z,7.30
2018-02-12T11:54:40.046Z,7.53
2018-02-12T11:57:08.399Z,6.80
2018-02-12T11:59:36.007Z,6.43
2018-02-12T12:02:04.923Z,6.67
2018-02-12T12:04:33.331Z,7.67
2018-02-12T12:07:01.821Z,5.50
2018-02-12T12:09:30.228Z,6.80
2018-02-12T12:11:58.850Z,5.87
2018-02-12T12:14:27.359Z,7.03
2018-02-12T12:16:55.099Z,6.97
2018-02-12T12:19:22.771Z,7.50
2018-02-12T12:21:50.390Z,7.00
2018-02-12T12:24:17.958Z,7.63
2018-02-12T12:26:45.569Z,8.57
2018-02-12T12:29:13.915Z,7.73
2018-02-12T12:31:41.494Z,7.50
2018-02-12T12:34:09.962Z,8.13
2018-02-12T12:36:38.302Z,7.67
2018-02-12T12:39:06.931Z,8.80
2018-02-12T12:41:34.515Z,7.17
2018-02-12T12:44:02.666Z,7.20
2018-02-12T12:46:30.514Z,8.10
2018-02-12T12:48:59.021Z,8.87
2018-02-12T12:51:26.595Z,6.87
2018-02-12T12:53:55.067Z,7.43
2018-02-12T12:56:22.639Z,6.70
2018-02-12T12:58:50.210Z,8.20
2018-02-12T13:01:17.782Z,9.13
2018-02-12T13:03:45.365Z,9.13
2018-02-12T13:06:12.954Z,10.37
2018-02-12T13:08:40.666Z,8.10
2018-02-12T13:11:09.424Z,8.80
2018-02-12T13:13:37.039Z,9.37
2018-02-12T13:16:04.615Z,9.20
2018-02-12T13:18:32.306Z,8.93
2018-02-12T13:20:59.974Z,9.57
2018-02-12T13:23:28.462Z,10.77
2018-02-12T13:25:56.082Z,9.77
2018-02-12T13:28:23.657Z,10.10
2018-02-12T13:30:51.230Z,9.43
2018-02-12T13:33:18.810Z,11.17
2018-02-12T13:35:46.382Z,9.90
2018-02-12T13:38:14.726Z,11.53
2018-02-12T13:40:42.943Z,10.90
2018-02-12T13:43:10.576Z,10.40
2018-02-12T13:45:38.980Z,10.33
2018-02-12T13:48:06.567Z,10.40
2018-02-12T13:50:34.138Z,9.60
2018-02-12T13:53:01.740Z,10.27
2018-02-12T13:55:30.109Z,10.80
2018-02-12T13:57:58.389Z,10.93
2018-02-12T14:00:25.976Z,10.40
2018-02-12T14:02:53.618Z,9.93
2018-02-12T14:05:21.198Z,10.00
2018-02-12T14:07:49.735Z,9.00
2018-02-12T14:10:17.430Z,9.20
2018-02-12T14:12:45.008Z,9.07
2018-02-12T14:15:12.583Z,7.77
2018-02-12T14:17:40.156Z,8.90
2018-02-12T14:20:07.768Z,8.00
2018-02-12T14:22:35.351Z,8.13
2018-02-12T14:25:02.925Z,7.67
2018-02-12T14:27:31.305Z,6.80
2018-02-12T14:29:58.922Z,6.73
2018-02-12T14:32:27.286Z,5.57
2018-02-12T14:34:54.878Z,5.80
2018-02-12T14:37:22.451Z,5.40
2018-02-12T14:39:50.062Z,5.23
2018-02-12T14:42:17.634Z,5.70
2018-02-12T14:44:45.224Z,4.90
2018-02-12T14:47:12.844Z,5.27
2018-02-12T14:49:41.467Z,6.40
2018-02-12T14:52:09.745Z,4.30
2018-02-12T14:54:37.319Z,4.90
2018-02-12T14:57:04.971Z,5.33
2018-02-12T14:59:32.640Z,4.80
2018-02-12T15:02:01.165Z,4.40
2018-02-12T15:04:29.667Z,3.90
2018-02-12T15:06:57.239Z,4.23
2018-02-12T15:09:24.852Z,4.03
2018-02-12T15:11:52.432Z,3.27
2018-02-12T15:14:20.963Z,3.80
2018-02-12T15:16:49.383Z,3.00
2018-02-12T15:19:17.735Z,3.43
2018-02-12T15:21:46.073Z,4.27
2018-02-12T15:24:14.338Z,2.90
2018-02-12T15:26:42.754Z,3.27
2018-02-12T15:29:11.029Z,3.70
2018-02-12T15:31:39.426Z,4.17
2018-02-12T15:34:07.893Z,3.80
2018-02-12T15:36:36.383Z,3.10
2018-02-12T15:39:04.767Z,3.50
2018-02-12T15:41:33.244Z,4.40
2018-02-12T15:44:01.664Z,3.80
2018-02-12T15:46:30.020Z,4.80
2018-02-12T15:48:58.381Z,4.40
2018-02-12T15:51:26.861Z,4.00
2018-02-12T15:53:55.270Z,4.83
2018-02-12T15:56:23.622Z,4.67
2018-02-12T15:58:52.039Z,4.97
2018-02-12T16:01:20.333Z,5.07
2018-02-12T16:03:47.906Z,4.23
2018-02-12T16:06:15.488Z,4.67
2018-02-12T16:08:43.914Z,4.87
2018-02-12T16:11:12.462Z,4.50
2018-02-12T16:13:40.846Z,4.63
2018-02-12T16:16:09.321Z,4.67
2018-02-12T16:18:36.896Z,4.90
2018-02-12T16:21:05.322Z,5.00
2018-02-12T16:23:33.660Z,4.20
2018-02-12T16:26:01.233Z,3.90
2018-02-12T16:28:28.806Z,4.57
2018-02-12T16:30:56.369Z,3.73
2018-02-12T16:33:23.938Z,5.00
2018-02-12T16:35:51.509Z,4.23
2018-02-12T16:38:19.083Z,4.20
2018-02-12T16:40:47.666Z,4.63
2018-02-12T16:43:15.335Z,3.73
2018-02-12T16:45:42.911Z,4.97
2018-02-12T16:48:10.588Z,5.27
2018-02-12T16:50:38.250Z,4.63
2018-02-12T16:53:05.862Z,5.33
2018-02-12T16:55:33.430Z,5.50
2018-02-12T16:58:01.739Z,5.50
2018-02-12T17:00:30.094Z,6.20
2018-02-12T17:02:57.707Z,6.23
2018-02-12T17:05:25.350Z,6.33
2018-02-12T17:07:53.018Z,5.73
2018-02-12T17:10:21.289Z,5.30
2018-02-12T17:12:48.874Z,6.20
2018-02-12T17:15:17.372Z,6.00
2018-02-12T17:17:44.967Z,6.67
2018-02-12T17:20:12.539Z,6.10
2018-02-12T17:22:40.112Z,6.70
2018-02-12T17:25:07.719Z,6.63
2018-02-12T17:27:35.498Z,7.10
2018-02-12T17:30:03.122Z,6.70
2018-02-12T17:32:30.740Z,8.00
2018-02-12T17:34:58.317Z,7.03
2018-02-12T17:37:26.156Z,6.47
2018-02-12T17:39:54.044Z,7.30
2018-02-12T17:42:21.681Z,7.50
2018-02-12T17:44:49.294Z,7.00
2018-02-12T17:47:16.905Z,6.87
2018-02-12T17:49:44.584Z,6.77
2018-02-12T17:52:12.211Z,6.87
2018-02-12T17:54:39.840Z,6.47
2018-02-12T17:57:08.318Z,7.07
2018-02-12T17:59:36.031Z,7.60
2018-02-12T18:02:03.650Z,7.57
2018-02-12T18:04:31.227Z,8.20
2018-02-12T18:06:58.871Z,9.23
2018-02-12T18:09:27.327Z,9.67
2018-02-12T18:11:54.914Z,8.20
2018-02-12T18:14:27.033Z,9.40
2018-02-12T18:16:54.824Z,8.77
2018-02-12T18:19:22.399Z,9.40
2018-02-12T18:21:50.023Z,7.60
2018-02-12T18:24:17.703Z,8.33
2018-02-12T18:26:45.312Z,7.00
2018-02-12T18:29:13.802Z,8.40
2018-02-12T18:31:41.374Z,8.40
2018-02-12T18:34:08.991Z,8.77
2018-02-12T18:36:36.628Z,7.80
2018-02-12T18:39:04.246Z,9.50
2018-02-12T18:41:32.409Z,7.70
2018-02-12T18:43:59.995Z,7.70
2018-02-12T18:46:27.578Z,8.10
2018-02-12T18:48:55.150Z,7.80
2018-02-12T18:51:22.736Z,9.18
2018-02-12T18:53:50.318Z,9.50
2018-02-12T18:56:17.945Z,10.95
2018-02-12T18:58:48.401Z,9.48
2018-02-12T19:01:16.015Z,9.37
2018-02-12T19:03:44.841Z,9.60
2018-02-12T19:06:13.811Z,9.30
2018-02-12T19:08:41.378Z,9.77
2018-02-12T19:11:09.014Z,9.03
2018-02-12T19:13:36.642Z,8.97
2018-02-12T19:16:05.104Z,8.80
2018-02-12T19:18:32.683Z,11.30
2018-02-12T19:24:04.906Z,9.10
2018-02-12T19:26:42.132Z,10.68
2018-02-12T19:29:13.614Z,9.47
2018-02-12T19:31:42.191Z,10.37
2018-02-12T19:34:10.747Z,10.38
2018-02-12T19:36:40.201Z,8.73
2018-02-12T19:39:08.237Z,11.47
2018-02-12T19:41:36.672Z,10.90
2018-02-12T19:44:04.313Z,10.65
2018-02-12T19:46:32.460Z,10.10
2018-02-12T19:49:00.998Z,11.23
2018-02-12T19:51:28.590Z,11.80
2018-02-12T19:53:57.047Z,12.00
2018-02-12T19:56:24.642Z,13.18
2018-02-12T19:58:56.272Z,10.73
2018-02-12T20:01:25.378Z,11.57
2018-02-12T20:03:53.437Z,11.82
2018-02-12T20:06:22.756Z,11.25
2018-02-12T20:08:50.493Z,9.52
2018-02-12T20:11:18.074Z,9.52
2018-02-12T20:13:52.512Z,9.70
2018-02-12T20:16:29.686Z,10.35
2018-02-12T20:18:58.386Z,11.30
2018-02-12T20:21:26.752Z,9.93
2018-02-12T20:23:55.511Z,11.38
2018-02-12T20:26:23.734Z,10.63
2018-02-12T20:28:51.343Z,9.07
2018-02-12T20:31:19.003Z,8.60
2018-02-12T20:33:46.661Z,8.73
2018-02-12T20:36:14.246Z,8.43
2018-02-12T20:38:41.935Z,9.32
2018-02-12T20:41:10.566Z,8.52
2018-02-12T20:43:38.192Z,7.93
2018-02-12T20:46:05.827Z,9.18
2018-02-12T20:48:33.462Z,7.75
2018-02-12T20:51:01.619Z,7.87
2018-02-12T20:53:29.359Z,9.55
2018-02-12T20:55:57.845Z,7.78
2018-02-12T20:58:25.463Z,7.30
2018-02-12T21:00:53.051Z,7.78
2018-02-12T21:03:20.755Z,7.72
2018-02-12T21:05:48.539Z,8.52
2018-02-12T21:08:17.134Z,7.85
2018-02-12T21:10:44.723Z,7.47
2018-02-12T21:13:13.247Z,7.00
2018-02-12T21:15:41.910Z,7.37
2018-02-12T21:18:10.563Z,8.45
2018-02-12T21:20:39.064Z,6.97
2018-02-12T21:23:08.404Z,7.78
2018-02-12T21:25:36.159Z,6.50
2018-02-12T21:28:03.750Z,7.78
2018-02-12T21:30:31.402Z,7.35
2018-02-12T21:32:59.482Z,8.10
2018-02-12T21:35:27.538Z,7.40
2018-02-12T21:37:55.263Z,6.50
2018-02-12T21:40:22.846Z,6.75
2018-02-12T21:42:51.423Z,7.50
2018-02-12T21:45:19.016Z,8.13
2018-02-12T21:47:47.912Z,6.22
2018-02-12T21:50:16.546Z,7.20
2018-02-12T21:52:44.158Z,8.23
2018-02-12T21:55:11.760Z,7.90
2018-02-12T21:57:39.367Z,6.90
2018-02-12T22:00:07.012Z,5.82
2018-02-12T22:02:34.633Z,7.22
2018-02-12T22:05:02.216Z,7.75
2018-02-12T22:07:29.838Z,6.82
2018-02-12T22:09:57.424Z,7.15
2018-02-12T22:12:25.052Z,8.25
2018-02-12T22:14:53.353Z,7.10
2018-02-12T22:17:21.826Z,7.10
2018-02-12T22:19:50.191Z,7.43
2018-02-12T22:22:17.778Z,7.93
2018-02-12T22:24:45.366Z,8.05
2018-02-12T22:27:12.953Z,7.28
2018-02-12T22:29:40.538Z,7.47
2018-02-12T22:32:08.127Z,6.62
2018-02-12T22:34:35.713Z,7.20
2018-02-12T22:37:03.518Z,7.50
2018-02-12T22:39:31.112Z,7.03
2018-02-12T22:41:58.697Z,7.25
2018-02-12T22:44:26.283Z,7.97
2018-02-12T22:46:53.920Z,7.40
2018-02-12T22:49:21.502Z,8.55
2018-02-12T22:51:49.090Z,7.12
2018-02-12T22:54:16.671Z,7.17
2018-02-12T22:56:44.319Z,7.87
2018-02-12T22:59:11.912Z,8.00
2018-02-12T23:01:40.273Z,7.35
2018-02-12T23:04:07.858Z,7.60
2018-02-12T23:06:35.448Z,7.93
2018-02-12T23:09:03.747Z,8.18
2018-02-12T23:11:31.334Z,7.72
2018-02-12T23:13:58.930Z,8.73
2018-02-12T23:16:27.423Z,6.85
2018-02-12T23:18:55.792Z,7.55
2018-02-12T23:21:23.376Z,8.18
2018-02-12T23:23:50.966Z,6.30
2018-02-12T23:26:18.559Z,7.72
2018-02-12T23:28:46.962Z,6.95
2018-02-12T23:31:14.583Z,7.93
2018-02-12T23:33:43.083Z,8.05
2018-02-12T23:36:11.442Z,8.48
2018-02-12T23:38:39.067Z,7.22
2018-02-12T23:41:07.434Z,7.53
2018-02-12T23:43:35.018Z,10.23
2018-02-12T23:46:03.511Z,8.07
2018-02-12T23:48:31.104Z,7.15
2018-02-12T23:50:59.506Z,8.63
2018-02-12T23:53:27.898Z,9.07
2018-02-12T23:55:56.183Z,8.77
2018-02-12T23:58:24.583Z,7.40
